Time;durP1;ratioP1;P1;durP2;ratioP2;P2;SDS_P1;SDS_P2;PMS_P1;PMS_P2;Temp;Humidity;BMP_temperature;BMP_pressure;BME280_temperature;BME280_humidity;BME280_pressure;Samples;Min_cycle;Max_cycle;Signal;HPM_P1;HPM_P2
2023/05/06 00:00:38;;;;;;;26.98;16.80;;;13.80;99.90;;;;;;5039868;28;20023;-71
2023/05/06 00:03:04;;;;;;;31.67;16.88;;;13.70;99.90;;;;;;5047217;28;20480;-71
2023/05/06 00:05:29;;;;;;;27.10;15.68;;;13.70;99.90;;;;;;5046593;28;20021;-72
2023/05/06 00:07:55;;;;;;;28.63;15.30;;;13.70;99.90;;;;;;5039613;28;20039;-71
2023/05/06 00:10:20;;;;;;;26.63;15.13;;;13.60;99.90;;;;;;5051381;28;20029;-71
2023/05/06 00:12:46;;;;;;;28.25;14.93;;;13.70;99.90;;;;;;5040387;28;20164;-71
2023/05/06 00:15:11;;;;;;;28.70;15.00;;;13.70;99.90;;;;;;5045652;28;20032;-71
2023/05/06 00:17:37;;;;;;;25.27;14.15;;;13.70;99.90;;;;;;5047390;28;20048;-72
2023/05/06 00:20:03;;;;;;;25.77;13.85;;;13.70;99.90;;;;;;5038768;28;20048;-70
2023/05/06 00:22:28;;;;;;;27.33;14.48;;;13.70;99.90;;;;;;5051066;28;20432;-72
2023/05/06 00:24:54;;;;;;;25.73;13.93;;;13.80;99.90;;;;;;5035157;28;20029;-72
2023/05/06 00:27:20;;;;;;;24.95;13.88;;;13.80;99.90;;;;;;5044123;28;20056;-72
2023/05/06 00:29:45;;;;;;;23.92;13.52;;;13.80;99.90;;;;;;5031362;28;20077;-73
2023/05/06 00:32:11;;;;;;;27.50;14.82;;;13.80;99.90;;;;;;5037523;28;20033;-72
2023/05/06 00:34:36;;;;;;;26.08;14.00;;;13.70;99.90;;;;;;5050268;28;20033;-75
2023/05/06 00:37:02;;;;;;;25.75;14.40;;;13.70;99.90;;;;;;5042223;28;20060;-74
2023/05/06 00:39:28;;;;;;;28.45;15.18;;;13.70;99.90;;;;;;5043331;28;20041;-75
2023/05/06 00:42:00;;;;;;;25.00;13.95;;;13.60;99.90;;;;;;5022488;28;20049;-73
2023/05/06 00:44:26;;;;;;;;;;;13.60;99.90;;;;;;5050852;28;20033;-71
2023/05/06 00:46:52;;;;;;;26.42;15.52;;;13.60;99.90;;;;;;5038984;28;19909;-73
2023/05/06 00:49:18;;;;;;;29.02;15.23;;;13.60;99.90;;;;;;5044477;28;20020;-72
2023/05/06 00:51:44;;;;;;;27.38;15.05;;;13.60;99.90;;;;;;5040869;28;20030;-73
2023/05/06 00:54:10;;;;;;;31.42;16.35;;;13.60;99.90;;;;;;5050370;28;20351;-72
2023/05/06 00:56:36;;;;;;;27.48;14.30;;;13.60;99.90;;;;;;5038476;28;20082;-75
2023/05/06 00:59:02;;;;;;;26.70;14.65;;;13.60;99.90;;;;;;5041453;28;20048;-71
2023/05/06 01:01:30;;;;;;;28.08;15.43;;;13.60;99.90;;;;;;5042847;28;20030;-71
2023/05/06 01:03:57;;;;;;;28.15;14.88;;;13.70;99.90;;;;;;5037518;28;20025;-73
2023/05/06 01:06:36;;;;;;;28.95;16.30;;;13.80;99.90;;;;;;5041355;28;20033;-75
2023/05/06 01:09:19;;;;;;;26.90;15.55;;;13.90;99.90;;;;;;5046123;28;20036;-71
2023/05/06 01:12:13;;;;;;;28.50;14.45;;;13.90;99.90;;;;;;5047645;28;20025;-74
2023/05/06 01:14:46;;;;;;;26.83;15.85;;;13.90;99.90;;;;;;5033025;28;20092;-76
2023/05/06 01:17:17;;;;;;;24.50;13.75;;;13.90;99.90;;;;;;5031814;28;20128;-71
2023/05/06 01:19:47;;;;;;;27.73;14.85;;;13.80;99.90;;;;;;5040614;28;20088;-71
2023/05/06 01:22:14;;;;;;;28.92;16.70;;;13.80;99.90;;;;;;5041906;28;20220;-72
2023/05/06 01:24:44;;;;;;;27.00;14.88;;;13.70;99.90;;;;;;5046187;28;20017;-71
2023/05/06 01:27:11;;;;;;;29.13;14.88;;;13.70;99.90;;;;;;5044493;28;20084;-73
2023/05/06 01:29:40;;;;;;;25.65;14.77;;;13.70;99.90;;;;;;5045845;28;20098;-74
2023/05/06 01:32:43;;;;;;;27.02;15.25;;;13.70;99.90;;;;;;5030728;28;20441;-75
2023/05/06 01:35:35;;;;;;;28.20;16.25;;;13.60;99.90;;;;;;5031031;28;20053;-73
2023/05/06 01:38:34;;;;;;;29.45;16.30;;;13.60;99.90;;;;;;5037377;28;20037;-72
2023/05/06 01:41:00;;;;;;;28.05;15.48;;;13.50;99.90;;;;;;5023603;28;20374;-73
2023/05/06 01:43:32;;;;;;;32.20;16.90;;;13.50;99.90;;;;;;5033558;28;20460;-72
2023/05/06 01:45:59;;;;;;;31.33;17.33;;;13.40;99.90;;;;;;5033581;28;20134;-75
2023/05/06 01:48:28;;;;;;;31.58;17.30;;;13.30;99.90;;;;;;5032884;28;20116;-71
2023/05/06 01:50:54;;;;;;;31.20;17.98;;;13.30;99.90;;;;;;5033276;28;20033;-73
2023/05/06 01:53:20;;;;;;;31.05;17.60;;;13.20;99.90;;;;;;5031310;28;20026;-75
2023/05/06 01:55:47;;;;;;;32.50;18.88;;;13.20;99.90;;;;;;5033356;28;20026;-72
2023/05/06 01:58:13;;;;;;;35.53;19.92;;;13.20;99.90;;;;;;5033235;28;20068;-71
2023/05/06 02:00:39;;;;;;;35.05;20.65;;;13.10;99.90;;;;;;5033006;28;20068;-74
2023/05/06 02:03:04;;;;;;;36.00;21.20;;;13.00;99.90;;;;;;5043981;28;20036;-72
2023/05/06 02:05:30;;;;;;;35.97;19.40;;;13.00;99.90;;;;;;5032052;28;20442;-70
2023/05/06 02:07:55;;;;;;;35.88;19.73;;;13.00;99.90;;;;;;5031711;28;20033;-71
2023/05/06 02:10:21;;;;;;;37.03;20.48;;;13.00;99.90;;;;;;5033866;28;20032;-72
2023/05/06 02:12:47;;;;;;;35.97;20.98;;;12.90;99.90;;;;;;5032745;28;20034;-70
2023/05/06 02:15:13;;;;;;;41.85;21.88;;;12.90;99.90;;;;;;5035991;28;20033;-71
2023/05/06 02:17:40;;;;;;;38.25;22.38;;;12.90;99.90;;;;;;5046345;28;20556;-71
2023/05/06 02:20:08;;;;;;;40.70;22.40;;;12.90;99.90;;;;;;5049693;28;20104;-71
2023/05/06 02:22:34;;;;;;;38.67;23.20;;;12.90;99.90;;;;;;5036616;28;20737;-71
2023/05/06 02:25:00;;;;;;;39.00;22.00;;;12.90;99.90;;;;;;5045626;28;20113;-72
2023/05/06 02:27:25;;;;;;;36.92;21.33;;;13.00;99.90;;;;;;5043760;28;20044;-71
2023/05/06 02:29:51;;;;;;;36.53;22.05;;;12.90;99.90;;;;;;5038049;28;20026;-74
2023/05/06 02:32:16;;;;;;;39.50;21.95;;;12.90;99.90;;;;;;5034328;28;20113;-71
2023/05/06 02:34:42;;;;;;;38.42;23.55;;;12.80;99.90;;;;;;5047622;28;20025;-71
2023/05/06 02:37:07;;;;;;;38.00;21.60;;;12.80;99.90;;;;;;5032531;28;20183;-71
2023/05/06 02:39:33;;;;;;;40.58;23.25;;;12.80;99.90;;;;;;5044342;28;20037;-73
2023/05/06 02:41:59;;;;;;;38.97;23.60;;;12.80;99.90;;;;;;5036493;28;20021;-73
2023/05/06 02:44:25;;;;;;;40.85;23.45;;;12.80;99.90;;;;;;5049034;28;20425;-71
2023/05/06 02:46:50;;;;;;;38.95;22.38;;;12.70;99.90;;;;;;5038265;28;20457;-74
2023/05/06 02:49:16;;;;;;;42.63;23.30;;;12.70;99.90;;;;;;5042441;28;20079;-73
2023/05/06 02:51:41;;;;;;;42.25;23.85;;;12.60;99.90;;;;;;5045530;28;20074;-73
2023/05/06 02:54:07;;;;;;;42.17;23.92;;;12.60;99.90;;;;;;5035462;28;20045;-69
2023/05/06 02:56:33;;;;;;;39.63;22.98;;;12.60;99.90;;;;;;5036064;28;20025;-75
2023/05/06 02:58:59;;;;;;;42.40;24.35;;;12.60;99.90;;;;;;5044777;28;20026;-71
2023/05/06 03:01:25;;;;;;;37.72;22.83;;;12.60;99.90;;;;;;5042654;28;20173;-71
2023/05/06 03:03:50;;;;;;;39.55;23.38;;;12.50;99.90;;;;;;5037705;28;20030;-72
2023/05/06 03:06:16;;;;;;;43.78;25.20;;;12.50;99.90;;;;;;5048911;28;20035;-75
2023/05/06 03:08:41;;;;;;;42.20;24.40;;;12.50;99.90;;;;;;5037199;28;20460;-72
2023/05/06 03:11:07;;;;;;;37.53;24.17;;;12.50;99.90;;;;;;5043689;28;20421;-72
2023/05/06 03:13:32;;;;;;;35.50;22.35;;;12.40;99.90;;;;;;5043886;28;20036;-72
2023/05/06 03:15:58;;;;;;;40.45;23.25;;;12.40;99.90;;;;;;5036222;28;20068;-75
2023/05/06 03:18:23;;;;;;;37.95;21.38;;;12.30;99.90;;;;;;5048407;28;20041;-75
2023/05/06 03:20:49;;;;;;;37.00;23.67;;;12.30;99.90;;;;;;5038189;28;20071;-73
2023/05/06 03:23:16;;;;;;;38.67;23.80;;;12.30;99.90;;;;;;5042242;28;20060;-73
2023/05/06 03:25:41;;;;;;;39.63;25.08;;;12.30;99.90;;;;;;5031767;28;20183;-75
2023/05/06 03:28:07;;;;;;;38.30;24.83;;;12.30;99.90;;;;;;5047897;28;20552;-73
2023/05/06 03:30:33;;;;;;;37.88;22.38;;;12.30;99.90;;;;;;5035446;28;20504;-71
2023/05/06 03:33:01;;;;;;;39.58;23.25;;;12.30;99.90;;;;;;5044745;28;20018;-73
2023/05/06 03:35:27;;;;;;;39.15;25.42;;;12.30;99.90;;;;;;5042860;28;20084;-74
2023/05/06 03:37:52;;;;;;;44.63;26.15;;;12.20;99.90;;;;;;5035363;28;20504;-73
2023/05/06 03:40:18;;;;;;;43.63;26.33;;;12.20;99.90;;;;;;5048189;28;20029;-73
2023/05/06 03:42:44;;;;;;;44.15;26.33;;;12.20;99.90;;;;;;5037157;28;20029;-71
2023/05/06 03:45:10;;;;;;;48.25;27.63;;;12.20;99.90;;;;;;5042578;28;20025;-70
2023/05/06 03:47:35;;;;;;;51.92;28.90;;;12.20;99.90;;;;;;5034068;28;20093;-71
2023/05/06 03:50:01;;;;;;;49.38;28.05;;;12.20;99.90;;;;;;5029521;28;20049;-71
2023/05/06 03:52:27;;;;;;;53.20;29.35;;;12.20;99.90;;;;;;5033405;28;20033;-70
2023/05/06 03:54:52;;;;;;;45.35;27.83;;;12.20;99.90;;;;;;5031709;28;20032;-70
2023/05/06 03:57:18;;;;;;;45.35;26.73;;;12.20;99.90;;;;;;5031999;28;20029;-71
2023/05/06 03:59:43;;;;;;;50.28;29.88;;;12.20;99.90;;;;;;5031977;28;20132;-69
2023/05/06 04:02:09;;;;;;;50.10;28.98;;;12.20;99.90;;;;;;5032682;28;20130;-69
2023/05/06 04:04:35;;;;;;;51.47;30.25;;;12.20;99.90;;;;;;5033048;28;20052;-70
2023/05/06 04:07:02;;;;;;;53.10;30.08;;;12.20;99.90;;;;;;5029460;28;20131;-72
2023/05/06 04:09:28;;;;;;;47.47;30.33;;;12.20;99.90;;;;;;5027253;28;20045;-71
2023/05/06 04:11:53;;;;;;;49.28;30.00;;;12.20;99.90;;;;;;5030786;28;20021;-69
2023/05/06 04:14:19;;;;;;;48.10;28.27;;;12.20;99.90;;;;;;5032456;28;20017;-69
2023/05/06 04:16:45;;;;;;;48.20;29.67;;;12.20;99.90;;;;;;5033243;28;20105;-70
2023/05/06 04:19:10;;;;;;;51.42;28.75;;;12.10;99.90;;;;;;5036077;28;20492;-71
2023/05/06 04:21:36;;;;;;;44.30;27.63;;;12.10;99.90;;;;;;5034861;28;20029;-69
2023/05/06 04:24:01;;;;;;;44.95;28.27;;;12.10;99.90;;;;;;5035640;28;20026;-72
2023/05/06 04:26:27;;;;;;;41.85;26.50;;;12.20;99.90;;;;;;5037401;28;20021;-73
2023/05/06 04:28:52;;;;;;;43.47;25.73;;;12.20;99.90;;;;;;5035577;28;20060;-73
2023/05/06 04:31:18;;;;;;;43.63;26.52;;;12.20;99.90;;;;;;5035522;28;20028;-72
2023/05/06 04:33:43;;;;;;;44.92;27.00;;;12.30;99.90;;;;;;5035286;28;20031;-71
2023/05/06 04:36:09;;;;;;;51.03;28.83;;;12.30;99.90;;;;;;5035837;28;20030;-70
2023/05/06 04:38:36;;;;;;;44.42;26.73;;;12.30;99.90;;;;;;5036424;28;20461;-69
2023/05/06 04:41:03;;;;;;;42.83;27.58;;;12.40;99.90;;;;;;5028316;28;20454;-71
2023/05/06 04:43:29;;;;;;;42.35;26.27;;;12.40;99.90;;;;;;5035771;28;20079;-69
2023/05/06 04:45:55;;;;;;;41.75;25.98;;;12.50;99.90;;;;;;5035247;28;20062;-70
2023/05/06 04:48:22;;;;;;;41.40;24.88;;;12.60;99.90;;;;;;5036994;28;20029;-70
2023/05/06 04:50:48;;;;;;;39.08;24.65;;;12.60;99.90;;;;;;5033764;28;20025;-71
2023/05/06 04:53:14;;;;;;;38.03;23.55;;;12.70;99.90;;;;;;5034032;28;20038;-70
2023/05/06 04:55:40;;;;;;;40.00;23.63;;;12.90;99.90;;;;;;5033434;28;20466;-71
2023/05/06 04:58:06;;;;;;;39.47;23.45;;;13.00;99.90;;;;;;5033452;28;20043;-70
2023/05/06 05:00:32;;;;;;;37.20;22.83;;;13.20;99.90;;;;;;5033437;28;20036;-69
2023/05/06 05:02:58;;;;;;;31.88;21.33;;;13.40;99.90;;;;;;5023647;28;20029;-73
2023/05/06 05:05:25;;;;;;;33.00;20.10;;;13.60;99.90;;;;;;5033417;28;20032;-70
2023/05/06 05:07:50;;;;;;;33.72;20.73;;;13.80;99.90;;;;;;5033334;28;20021;-70
2023/05/06 05:10:16;;;;;;;31.02;20.10;;;13.90;99.90;;;;;;5033106;28;20433;-72
2023/05/06 05:12:42;;;;;;;31.27;20.05;;;13.90;99.90;;;;;;5032654;28;20486;-72
2023/05/06 05:15:07;;;;;;;29.33;19.48;;;13.90;99.90;;;;;;5033455;28;20714;-71
2023/05/06 05:17:33;;;;;;;33.10;21.13;;;13.90;99.90;;;;;;5033099;28;20033;-69
2023/05/06 05:19:59;;;;;;;37.10;22.48;;;14.00;99.90;;;;;;5032738;28;20025;-70
2023/05/06 05:22:24;;;;;;;32.38;20.77;;;14.00;99.90;;;;;;5033154;28;20022;-72
2023/05/06 05:24:50;;;;;;;33.70;20.48;;;14.00;99.90;;;;;;5033262;28;20029;-73
2023/05/06 05:27:16;;;;;;;34.17;22.33;;;14.00;99.90;;;;;;5032327;28;20025;-70
2023/05/06 05:29:41;;;;;;;31.98;20.98;;;14.10;99.90;;;;;;5033166;28;20032;-70
2023/05/06 05:32:07;;;;;;;31.60;20.30;;;14.10;99.90;;;;;;5032769;28;20037;-73
2023/05/06 05:34:32;;;;;;;33.90;20.42;;;14.10;99.90;;;;;;5032886;28;20622;-73
2023/05/06 05:36:58;;;;;;;33.70;20.95;;;14.20;99.90;;;;;;5033039;28;20026;-71
2023/05/06 05:39:23;;;;;;;33.47;21.92;;;14.30;99.90;;;;;;5030029;28;20029;-70
2023/05/06 05:41:49;;;;;;;32.17;20.80;;;14.40;99.90;;;;;;5032055;28;20014;-70
2023/05/06 05:44:15;;;;;;;31.70;20.25;;;14.50;99.90;;;;;;5032899;28;20496;-70
2023/05/06 05:46:41;;;;;;;30.48;19.48;;;14.60;99.90;;;;;;5047681;28;20442;-70
2023/05/06 05:49:06;;;;;;;31.73;18.88;;;14.70;99.90;;;;;;5037577;28;20091;-70
2023/05/06 05:51:32;;;;;;;32.65;19.48;;;14.80;99.90;;;;;;5049735;28;20029;-70
2023/05/06 05:53:58;;;;;;;30.92;18.73;;;15.00;99.90;;;;;;5041280;28;20021;-70
2023/05/06 05:56:23;;;;;;;29.65;18.77;;;15.10;99.90;;;;;;5042195;28;20034;-70
2023/05/06 05:58:49;;;;;;;29.45;17.73;;;15.30;99.90;;;;;;5047770;28;20140;-70
2023/05/06 06:01:14;;;;;;;30.05;19.00;;;15.40;99.90;;;;;;5036052;28;20543;-71
2023/05/06 06:03:40;;;;;;;27.10;17.63;;;15.60;99.90;;;;;;5048125;28;20029;-71
2023/05/06 06:06:06;;;;;;;27.10;16.45;;;15.80;99.90;;;;;;5044614;28;20466;-71
2023/05/06 06:08:32;;;;;;;25.10;16.15;;;16.00;99.90;;;;;;5034540;28;20048;-71
2023/05/06 06:10:58;;;;;;;24.73;15.75;;;16.30;99.90;;;;;;5048509;28;20134;-72
2023/05/06 06:13:23;;;;;;;26.63;16.02;;;16.70;99.90;;;;;;5035333;28;20182;-75
2023/05/06 06:15:50;;;;;;;24.67;15.18;;;17.30;99.90;;;;;;5046720;28;20119;-72
2023/05/06 06:18:15;;;;;;;28.35;16.40;;;17.80;99.90;;;;;;5041730;28;20048;-71
2023/05/06 06:20:41;;;;;;;26.23;15.63;;;18.40;99.90;;;;;;5039529;28;20029;-75
2023/05/06 06:23:06;;;;;;;25.25;15.43;;;18.90;99.90;;;;;;5049605;28;20025;-72
2023/05/06 06:25:32;;;;;;;23.45;14.57;;;19.50;99.90;;;;;;5036440;28;20021;-75
2023/05/06 06:27:57;;;;;;;24.02;14.93;;;20.00;99.90;;;;;;5045187;28;20056;-71
2023/05/06 06:30:23;;;;;;;24.95;14.90;;;20.80;99.90;;;;;;5044203;28;20060;-74
2023/05/06 06:32:51;;;;;;;21.60;13.57;;;21.50;99.90;;;;;;5038012;28;20029;-71
2023/05/06 06:35:18;;;;;;;24.20;14.60;;;21.80;99.90;;;;;;5049211;28;20065;-73
2023/05/06 06:37:44;;;;;;;22.27;14.38;;;22.30;99.90;;;;;;5038226;28;20021;-71
2023/05/06 06:40:10;;;;;;;22.30;13.73;;;22.60;99.90;;;;;;5051640;28;20095;-73
2023/05/06 06:42:36;;;;;;;21.00;13.75;;;22.80;99.90;;;;;;5039944;28;20116;-71
2023/05/06 06:45:02;;;;;;;22.63;13.35;;;22.70;99.90;;;;;;5049200;28;20104;-73
2023/05/06 06:47:28;;;;;;;23.67;14.30;;;22.70;99.90;;;;;;5036211;28;20476;-74
2023/05/06 06:49:53;;;;;;;23.65;14.68;;;22.70;99.90;;;;;;5045585;28;20032;-74
2023/05/06 06:52:19;;;;;;;24.05;13.95;;;22.60;99.90;;;;;;5032412;28;20497;-71
2023/05/06 06:54:45;;;;;;;21.42;13.10;;;22.40;99.90;;;;;;5036070;28;20032;-73
2023/05/06 06:57:10;;;;;;;23.92;14.45;;;22.30;99.90;;;;;;5048841;28;20103;-74
2023/05/06 06:59:36;;;;;;;22.25;13.50;;;22.20;99.90;;;;;;5047907;28;20441;-73
2023/05/06 07:02:02;;;;;;;21.65;12.65;;;22.10;99.90;;;;;;5039218;28;20100;-73
2023/05/06 07:04:27;;;;;;;22.60;12.05;;;22.10;99.90;;;;;;5040275;28;20120;-71
2023/05/06 07:06:53;;;;;;;24.77;10.60;;;22.20;99.90;;;;;;5032384;28;20472;-71
2023/05/06 07:09:18;;;;;;;23.60;11.88;;;22.40;99.90;;;;;;5048441;28;20036;-71
2023/05/06 07:11:44;;;;;;;22.55;9.02;;;22.40;99.90;;;;;;5038955;28;20020;-71
2023/05/06 07:14:11;;;;;;;19.92;8.50;;;22.60;99.90;;;;;;5041876;28;20104;-72
2023/05/06 07:16:37;;;;;;;21.90;9.95;;;22.70;99.90;;;;;;5039143;28;20339;-72
2023/05/06 07:19:02;;;;;;;21.20;8.10;;;22.70;99.90;;;;;;5048311;28;20028;-71
2023/05/06 07:21:31;;;;;;;20.63;8.90;;;22.80;99.90;;;;;;5035532;28;20033;-71
2023/05/06 07:23:57;;;;;;;18.15;8.15;;;23.30;99.90;;;;;;5044176;28;20044;-71
2023/05/06 07:26:23;;;;;;;18.45;7.35;;;23.90;99.90;;;;;;5042958;28;20029;-72
2023/05/06 07:28:48;;;;;;;17.77;6.78;;;24.30;99.90;;;;;;5037167;28;20052;-71
2023/05/06 07:31:15;;;;;;;20.58;7.55;;;24.30;99.70;;;;;;5048808;28;20096;-71
2023/05/06 07:33:41;;;;;;;17.60;7.38;;;24.20;99.50;;;;;;5037182;28;20017;-71
2023/05/06 07:36:06;;;;;;;16.25;6.03;;;24.00;99.40;;;;;;5046015;28;20044;-72
2023/05/06 07:38:32;;;;;;;16.77;5.85;;;23.70;99.50;;;;;;5045973;28;20040;-71
2023/05/06 07:40:58;;;;;;;14.13;6.28;;;23.60;99.80;;;;;;5036248;28;20576;-72
2023/05/06 07:43:23;;;;;;;15.75;6.13;;;23.40;99.90;;;;;;5048575;28;20025;-73
2023/05/06 07:45:49;;;;;;;17.50;6.43;;;23.30;99.90;;;;;;5037492;28;20017;-73
2023/05/06 07:48:15;;;;;;;19.73;7.07;;;23.40;99.90;;;;;;5042386;28;20039;-76
2023/05/06 07:50:40;;;;;;;16.95;7.55;;;23.70;99.90;;;;;;5038465;28;20117;-73
2023/05/06 07:53:06;;;;;;;17.08;6.82;;;24.00;99.10;;;;;;5051286;28;20384;-74
2023/05/06 07:55:31;;;;;;;15.73;7.28;;;24.20;98.40;;;;;;5039878;28;20037;-72
2023/05/06 07:57:57;;;;;;;16.45;7.53;;;24.30;98.20;;;;;;5048050;28;20381;-72
2023/05/06 08:00:22;;;;;;;15.55;6.80;;;24.50;98.10;;;;;;5046803;28;20032;-72
2023/05/06 08:02:48;;;;;;;20.35;6.93;;;24.80;98.00;;;;;;5041018;28;20048;-73
2023/05/06 08:05:14;;;;;;;18.80;6.50;;;25.30;97.30;;;;;;5053120;28;20079;-74
2023/05/06 08:07:40;;;;;;;14.98;5.40;;;26.20;96.80;;;;;;5048710;28;20066;-77
2023/05/06 08:10:07;;;;;;;16.65;5.53;;;27.40;95.40;;;;;;5047416;28;20022;-74
2023/05/06 08:12:34;;;;;;;14.60;5.28;;;28.60;93.90;;;;;;5047941;28;20040;-74
2023/05/06 08:15:00;;;;;;;16.88;5.32;;;29.90;92.60;;;;;;5037957;28;20492;-76
2023/05/06 08:17:26;;;;;;;13.55;4.72;;;31.10;90.40;;;;;;5051812;28;20029;-72
2023/05/06 08:19:52;;;;;;;9.77;3.78;;;32.20;88.10;;;;;;5040218;28;20147;-73
2023/05/06 08:22:17;;;;;;;21.55;4.32;;;33.20;85.90;;;;;;5045860;28;20029;-72
2023/05/06 08:24:43;;;;;;;12.48;3.70;;;34.00;82.80;;;;;;5041265;28;20109;-73
2023/05/06 08:27:09;;;;;;;12.63;3.60;;;34.70;81.00;;;;;;5045997;28;20053;-73
2023/05/06 08:29:34;;;;;;;14.55;3.78;;;35.40;78.20;;;;;;5050439;28;20106;-73
2023/05/06 08:32:00;;;;;;;10.77;3.13;;;35.50;76.50;;;;;;5047749;28;20461;-73
2023/05/06 08:34:26;;;;;;;12.98;4.35;;;35.40;74.40;;;;;;5043224;28;20030;-73
2023/05/06 08:36:51;;;;;;;11.50;3.90;;;35.40;74.00;;;;;;5049379;28;20105;-73
2023/05/06 08:39:17;;;;;;;14.55;4.50;;;35.50;74.20;;;;;;5037924;28;20063;-73
2023/05/06 08:41:47;;;;;;;11.15;4.68;;;35.70;73.30;;;;;;5049499;28;20026;-74
2023/05/06 08:44:18;;;;;;;11.88;5.10;;;35.80;73.30;;;;;;5044417;28;20100;-73
2023/05/06 08:46:45;;;;;;;13.52;5.45;;;35.90;72.30;;;;;;5040805;28;20025;-73
2023/05/06 08:49:10;;;;;;;14.82;5.40;;;35.90;72.80;;;;;;5051041;28;20041;-73
2023/05/06 08:51:37;;;;;;;15.95;5.60;;;36.10;71.50;;;;;;5043936;28;20045;-74
2023/05/06 08:54:03;;;;;;;12.15;4.82;;;36.40;72.10;;;;;;5050439;28;20021;-73
2023/05/06 08:56:32;;;;;;;15.10;5.05;;;36.70;69.90;;;;;;5042895;28;20029;-73
2023/05/06 08:58:58;;;;;;;10.38;3.80;;;36.90;69.70;;;;;;5037805;28;20045;-73
2023/05/06 09:01:26;;;;;;;11.85;4.32;;;37.40;68.00;;;;;;5053910;28;20108;-72
2023/05/06 09:03:52;;;;;;;13.07;4.22;;;37.70;66.90;;;;;;5046795;28;20017;-72
2023/05/06 09:06:18;;;;;;;10.48;3.90;;;37.20;66.90;;;;;;5037116;28;20049;-74
2023/05/06 09:08:44;;;;;;;12.20;3.75;;;36.30;67.80;;;;;;5037660;28;20556;-72
2023/05/06 09:11:27;;;;;;;12.18;3.42;;;35.40;68.10;;;;;;5037161;28;20466;-73
2023/05/06 09:14:16;;;;;;;8.13;3.30;;;34.80;68.90;;;;;;5026876;28;20104;-74
2023/05/06 09:16:44;;;;;;;10.60;3.25;;;35.10;67.90;;;;;;5039489;28;20030;-75
2023/05/06 09:19:10;;;;;;;11.18;3.60;;;35.20;68.70;;;;;;5046985;28;20120;-73
2023/05/06 09:21:44;;;;;;;9.93;2.90;;;35.60;68.20;;;;;;5049666;28;20104;-73
2023/05/06 09:24:12;;;;;;;12.10;2.90;;;36.40;66.70;;;;;;5043159;28;20083;-73
2023/05/06 09:26:39;;;;;;;14.70;3.08;;;36.90;65.20;;;;;;5053939;28;20040;-74
2023/05/06 09:29:06;;;;;;;7.38;2.15;;;36.90;65.40;;;;;;5037362;28;20054;-73
2023/05/06 09:31:32;;;;;;;10.38;2.90;;;37.10;64.50;;;;;;5050396;28;20063;-72
2023/05/06 09:33:59;;;;;;;14.00;3.80;;;36.90;64.30;;;;;;5046217;28;20025;-73
2023/05/06 09:36:26;;;;;;;11.25;3.03;;;36.80;65.80;;;;;;5044810;28;20134;-73
2023/05/06 09:38:55;;;;;;;11.45;3.00;;;36.60;66.00;;;;;;5037174;28;20053;-73
2023/05/06 09:41:24;;;;;;;12.38;2.90;;;36.20;65.10;;;;;;5049999;28;20029;-73
2023/05/06 09:43:54;;;;;;;11.27;3.42;;;35.20;65.10;;;;;;5035913;28;20022;-75
2023/05/06 09:46:21;;;;;;;11.90;4.00;;;34.00;68.00;;;;;;5028623;28;20030;-73
2023/05/06 09:48:53;;;;;;;13.85;3.45;;;33.20;69.40;;;;;;5024823;28;20030;-73
2023/05/06 09:51:19;;;;;;;13.50;3.20;;;32.50;70.10;;;;;;5048528;28;20037;-73
2023/05/06 09:53:46;;;;;;;16.38;5.50;;;32.30;70.70;;;;;;5039531;28;20071;-73
2023/05/06 09:56:13;;;;;;;14.30;5.25;;;33.10;70.10;;;;;;5043506;28;20055;-76
2023/05/06 09:58:39;;;;;;;14.32;4.13;;;34.20;69.10;;;;;;5045839;28;20409;-73
2023/05/06 10:01:07;;;;;;;12.52;3.63;;;35.20;68.00;;;;;;5033890;28;20076;-74
2023/05/06 10:03:34;;;;;;;10.68;3.70;;;36.30;66.60;;;;;;5048556;28;20470;-74
2023/05/06 10:06:01;;;;;;;10.98;2.53;;;37.00;66.00;;;;;;5035986;28;20026;-72
2023/05/06 10:08:27;;;;;;;13.48;5.00;;;37.60;64.10;;;;;;5024593;28;20037;-73
2023/05/06 10:10:53;;;;;;;14.07;4.40;;;37.60;64.30;;;;;;5041776;28;20469;-74
2023/05/06 10:13:21;;;;;;;11.82;2.78;;;37.00;64.40;;;;;;5044533;28;20041;-72
2023/05/06 10:15:48;;;;;;;11.60;2.83;;;36.60;64.10;;;;;;5039843;28;20039;-73
2023/05/06 10:18:18;;;;;;;8.05;2.75;;;35.90;65.70;;;;;;5036305;28;20565;-73
2023/05/06 10:20:45;;;;;;;16.60;4.90;;;35.30;65.90;;;;;;5028936;28;20470;-73
2023/05/06 10:23:24;;;;;;;10.45;2.92;;;34.80;66.30;;;;;;5037584;28;20493;-72
2023/05/06 10:25:54;;;;;;;14.73;3.80;;;34.50;66.00;;;;;;5046727;28;20079;-72
2023/05/06 10:28:20;;;;;;;13.15;3.45;;;34.70;66.70;;;;;;5043245;28;20544;-72
2023/05/06 10:30:48;;;;;;;9.68;3.40;;;35.20;65.60;;;;;;5035959;28;20113;-72
2023/05/06 10:33:15;;;;;;;14.77;4.85;;;35.10;64.60;;;;;;5035436;28;20026;-73
2023/05/06 10:35:40;;;;;;;10.60;3.70;;;34.50;65.10;;;;;;5026754;28;20136;-74
2023/05/06 10:38:17;;;;;;;8.38;3.63;;;33.90;65.40;;;;;;5041576;28;20116;-73
2023/05/06 10:40:43;;;;;;;12.63;3.58;;;33.00;65.90;;;;;;5038590;28;20025;-72
2023/05/06 10:43:29;;;;;;;11.88;3.10;;;32.40;67.00;;;;;;5047951;28;20095;-71
2023/05/06 10:46:03;;;;;;;11.45;3.55;;;31.40;68.30;;;;;;5038703;28;20017;-71
2023/05/06 10:48:29;;;;;;;12.10;4.43;;;30.70;69.60;;;;;;5040442;28;20025;-75
2023/05/06 10:51:21;;;;;;;17.13;4.95;;;30.40;70.60;;;;;;5040618;28;20033;-73
2023/05/06 10:54:06;;;;;;;15.20;4.75;;;30.10;71.20;;;;;;5023743;28;20079;-73
2023/05/06 10:56:50;;;;;;;13.32;4.68;;;30.40;71.20;;;;;;5025739;28;20041;-74
2023/05/06 10:59:28;;;;;;;12.50;4.70;;;31.30;70.50;;;;;;5026408;28;20042;-73
2023/05/06 11:02:06;;;;;;;11.75;4.85;;;32.10;69.70;;;;;;5033821;28;20025;-73
2023/05/06 11:04:32;;;;;;;10.50;4.72;;;32.80;68.40;;;;;;5030513;28;20423;-73
2023/05/06 11:07:11;;;;;;;13.45;5.00;;;33.20;67.80;;;;;;5034606;28;20102;-73
2023/05/06 11:09:57;;;;;;;10.02;4.50;;;33.40;67.70;;;;;;5037577;28;20036;-74
2023/05/06 11:12:45;;;;;;;16.30;4.90;;;33.80;67.60;;;;;;5026605;28;20574;-74
2023/05/06 11:15:36;;;;;;;13.38;4.50;;;33.90;66.60;;;;;;5029711;28;20033;-75
2023/05/06 11:18:25;;;;;;;12.82;5.07;;;34.10;66.30;;;;;;5030670;28;20030;-74
2023/05/06 11:21:11;;;;;;;14.35;5.05;;;34.40;66.30;;;;;;5031727;28;20056;-73
2023/05/06 11:23:58;;;;;;;12.40;5.43;;;34.10;66.60;;;;;;5028990;28;20702;-72
2023/05/06 11:26:24;;;;;;;8.23;4.40;;;33.80;67.00;;;;;;5029365;28;20029;-73
2023/05/06 11:28:50;;;;;;;10.23;4.03;;;33.70;66.30;;;;;;5027192;28;20141;-73
2023/05/06 11:31:16;;;;;;;9.60;4.80;;;33.70;66.00;;;;;;5034580;28;20115;-73
2023/05/06 11:33:45;;;;;;;14.15;4.75;;;33.30;66.00;;;;;;5032583;28;20037;-73
2023/05/06 11:36:16;;;;;;;14.20;4.35;;;33.00;67.40;;;;;;5032727;28;20032;-72
2023/05/06 11:38:46;;;;;;;10.87;5.40;;;32.80;66.80;;;;;;5033542;28;20115;-72
2023/05/06 11:41:12;;;;;;;12.35;5.32;;;32.30;67.40;;;;;;5030655;28;20041;-73
2023/05/06 11:43:38;;;;;;;9.02;4.50;;;32.20;68.00;;;;;;5030324;28;20041;-72
2023/05/06 11:46:04;;;;;;;10.48;4.07;;;32.70;66.50;;;;;;5028890;28;20431;-73
2023/05/06 11:48:29;;;;;;;12.95;4.32;;;33.20;65.60;;;;;;5039023;28;20393;-73
2023/05/06 11:50:55;;;;;;;11.35;4.75;;;33.20;66.50;;;;;;5044170;28;20081;-73
2023/05/06 11:53:23;;;;;;;10.13;4.65;;;33.70;66.40;;;;;;5031602;28;20099;-76
2023/05/06 11:55:51;;;;;;;12.45;5.63;;;34.20;66.40;;;;;;5036391;28;20052;-73
2023/05/06 11:58:25;;;;;;;15.02;4.90;;;34.60;66.00;;;;;;5039442;28;20432;-73
2023/05/06 12:00:56;;;;;;;13.35;5.18;;;34.40;65.80;;;;;;5035504;28;20091;-73
2023/05/06 12:03:22;;;;;;;12.88;5.22;;;34.20;66.00;;;;;;5034444;28;20033;-73
2023/05/06 12:05:50;;;;;;;11.35;5.18;;;34.70;66.10;;;;;;5039661;28;20035;-73
2023/05/06 12:08:19;;;;;;;11.68;4.50;;;35.70;64.70;;;;;;5041227;28;20041;-73
2023/05/06 12:10:46;;;;;;;11.75;4.70;;;36.80;63.50;;;;;;5039039;28;20136;-74
2023/05/06 12:13:13;;;;;;;12.55;4.22;;;37.60;62.40;;;;;;5039903;28;20441;-74
2023/05/06 12:15:39;;;;;;;10.98;4.57;;;38.20;61.90;;;;;;5034946;28;20102;-71
2023/05/06 12:18:05;;;;;;;9.77;5.07;;;37.90;61.60;;;;;;5035560;28;20041;-72
2023/05/06 12:20:31;;;;;;;9.40;4.75;;;36.80;61.80;;;;;;5028798;28;20029;-72
2023/05/06 12:23:14;;;;;;;13.63;5.70;;;35.80;62.20;;;;;;5046815;28;20033;-71
2023/05/06 12:25:41;;;;;;;17.63;9.65;;;34.90;63.50;;;;;;5021718;28;20021;-74
2023/05/06 12:28:17;;;;;;;13.60;5.50;;;34.80;64.30;;;;;;5041987;28;20136;-72
2023/05/06 12:30:43;;;;;;;12.55;5.47;;;34.90;63.80;;;;;;5029681;28;20858;-74
2023/05/06 12:33:10;;;;;;;12.10;5.32;;;34.50;63.90;;;;;;5029845;28;20470;-70